createdAt,value
2024-02-13T00:01:13.127Z,79992.53
2024-02-13T00:02:54.689Z,79985.88
2024-02-13T00:04:36.126Z,79991.25
2024-02-13T00:06:17.485Z,80002.53
2024-02-13T00:07:58.906Z,80005.22
2024-02-13T00:09:40.300Z,80014.69
2024-02-13T00:11:21.686Z,80007.75
2024-02-13T00:13:03.043Z,80010.00
2024-02-13T00:14:46.219Z,80005.13
2024-02-13T00:16:28.485Z,80001.22
2024-02-13T00:18:10.142Z,80005.53
2024-02-13T00:19:51.667Z,80017.53
2024-02-13T00:21:33.047Z,80016.19
2024-02-13T00:23:14.387Z,80011.50
2024-02-13T00:24:55.772Z,80006.72
2024-02-13T00:26:37.146Z,80014.19
2024-02-13T00:28:18.604Z,80008.59
2024-02-13T00:29:59.978Z,80016.50
2024-02-13T00:31:41.325Z,80018.56
2024-02-13T00:33:22.725Z,80015.69
2024-02-13T00:35:04.168Z,80018.25
2024-02-13T00:36:45.538Z,80018.84
2024-02-13T00:38:26.922Z,80019.16
2024-02-13T00:40:08.305Z,80028.44
2024-02-13T00:41:49.738Z,80029.81
2024-02-13T00:43:31.253Z,80038.25
2024-02-13T00:45:13.214Z,80039.22
2024-02-13T00:46:54.638Z,80040.84
2024-02-13T00:48:36.014Z,80037.00
2024-02-13T00:50:17.416Z,80036.81
2024-02-13T00:51:58.786Z,80047.63
2024-02-13T00:53:40.129Z,80041.69
2024-02-13T00:55:21.516Z,80046.25
2024-02-13T00:57:02.922Z,80046.25
2024-02-13T00:58:44.305Z,80058.34
2024-02-13T01:00:25.713Z,80059.50
2024-02-13T01:02:07.070Z,80061.31
2024-02-13T01:03:48.469Z,80066.06
2024-02-13T01:05:29.855Z,80075.41
2024-02-13T01:07:11.300Z,80083.09
2024-02-13T01:08:52.698Z,80078.34
2024-02-13T01:10:34.088Z,80080.28
2024-02-13T01:12:15.465Z,80081.59
2024-02-13T01:13:56.806Z,80084.16
2024-02-13T01:15:38.219Z,80089.75
2024-02-13T01:17:19.583Z,80088.63
2024-02-13T01:19:01.077Z,80090.34
2024-02-13T01:20:42.573Z,80094.13
2024-02-13T01:22:23.936Z,80104.47
2024-02-13T01:24:05.375Z,80098.03
2024-02-13T01:25:46.725Z,80099.16
2024-02-13T01:27:28.077Z,80098.47
2024-02-13T01:29:09.445Z,80097.19
2024-02-13T01:30:50.848Z,80100.47
2024-02-13T01:32:32.298Z,80105.09
2024-02-13T01:34:13.766Z,80115.50
2024-02-13T01:35:55.321Z,80117.13
2024-02-13T01:37:36.783Z,80119.09
2024-02-13T01:39:18.202Z,80129.13
2024-02-13T01:40:59.685Z,80127.31
2024-02-13T01:42:41.057Z,80127.13
2024-02-13T01:44:22.471Z,80131.09
2024-02-13T01:46:03.909Z,80128.50
2024-02-13T01:47:45.365Z,80132.91
2024-02-13T01:49:26.870Z,80136.22
2024-02-13T01:51:08.365Z,80139.56
2024-02-13T01:52:49.749Z,80136.13
2024-02-13T01:54:31.094Z,80133.94
2024-02-13T01:56:12.495Z,80152.13
2024-02-13T01:57:53.871Z,80147.19
2024-02-13T01:59:35.258Z,80147.78
2024-02-13T02:01:16.657Z,80149.97
2024-02-13T02:02:58.108Z,80145.81
2024-02-13T02:04:39.537Z,80142.88
2024-02-13T02:06:20.985Z,80142.13
2024-02-13T02:08:02.453Z,80147.97
2024-02-13T02:09:43.870Z,80144.75
2024-02-13T02:11:26.542Z,80147.13
2024-02-13T02:13:08.148Z,80147.22
2024-02-13T02:14:49.707Z,80148.66
2024-02-13T02:16:31.110Z,80154.25
2024-02-13T02:18:12.592Z,80158.69
2024-02-13T02:19:54.119Z,80162.34
2024-02-13T02:21:35.477Z,80166.22
2024-02-13T02:23:16.811Z,80162.66
2024-02-13T02:24:58.205Z,80155.78
2024-02-13T02:26:39.597Z,80156.41
2024-02-13T02:28:21.080Z,80160.41
2024-02-13T02:30:02.489Z,80164.81
2024-02-13T02:31:43.890Z,80163.28
2024-02-13T02:33:25.308Z,80168.56
2024-02-13T02:35:06.803Z,80160.09
2024-02-13T02:36:48.159Z,80162.84
2024-02-13T02:38:29.526Z,80168.34
2024-02-13T02:40:10.907Z,80161.94
2024-02-13T02:41:52.390Z,80169.84
2024-02-13T02:43:33.917Z,80171.91
2024-02-13T02:45:15.303Z,80171.50
2024-02-13T02:46:56.658Z,80183.25
2024-02-13T02:48:38.080Z,80171.63
2024-02-13T02:50:19.521Z,80179.34
2024-02-13T02:52:00.921Z,80187.41
2024-02-13T02:53:42.481Z,80181.28
2024-02-13T02:55:24.163Z,80184.38
2024-02-13T02:57:05.613Z,80187.19
2024-02-13T02:58:47.013Z,80183.34
2024-02-13T03:00:28.376Z,80175.47
2024-02-13T03:02:09.773Z,80181.00
2024-02-13T03:03:51.349Z,80179.06
2024-02-13T03:05:32.880Z,80179.94
2024-02-13T03:07:14.257Z,80191.31
2024-02-13T03:08:55.669Z,80193.78
2024-02-13T03:10:37.072Z,80197.41
2024-02-13T03:12:18.413Z,80199.88
2024-02-13T03:13:59.764Z,80205.00
2024-02-13T03:15:41.148Z,80210.56
2024-02-13T03:17:22.611Z,80212.03
2024-02-13T03:19:04.172Z,80215.94
2024-02-13T03:20:45.587Z,80201.56
2024-02-13T03:22:27.015Z,80205.22
2024-02-13T03:24:08.400Z,80205.31
2024-02-13T03:25:49.779Z,80199.97
2024-02-13T03:27:31.142Z,80207.38
2024-02-13T03:29:12.555Z,80201.25
2024-02-13T03:30:53.910Z,80207.03
2024-02-13T03:32:35.499Z,80210.50
2024-02-13T03:34:17.209Z,80200.09
2024-02-13T03:35:58.619Z,80202.59
2024-02-13T03:37:39.965Z,80203.44
2024-02-13T03:39:21.322Z,80190.88
2024-02-13T03:41:02.679Z,80192.66
2024-02-13T03:42:44.018Z,80198.66
2024-02-13T03:44:25.393Z,80200.72
2024-02-13T03:46:06.718Z,80201.56
2024-02-13T03:47:48.202Z,80202.31
2024-02-13T03:49:29.703Z,80208.66
2024-02-13T03:51:11.108Z,80200.00
2024-02-13T03:52:52.461Z,80214.41
2024-02-13T03:54:33.851Z,80217.06
2024-02-13T03:56:15.242Z,80213.78
2024-02-13T03:57:56.592Z,80210.88
2024-02-13T03:59:38.134Z,80211.75
2024-02-13T04:01:19.495Z,80218.09
2024-02-13T04:03:00.824Z,80217.56
2024-02-13T04:04:42.204Z,80215.75
2024-02-13T04:06:23.706Z,80213.34
2024-02-13T04:08:05.119Z,80219.66
2024-02-13T04:09:46.508Z,80215.50
2024-02-13T04:11:27.876Z,80221.16
2024-02-13T04:13:09.241Z,80214.97
2024-02-13T04:14:50.758Z,80209.66
2024-02-13T04:16:32.394Z,80224.69
2024-02-13T04:18:13.862Z,80225.25
2024-02-13T04:19:55.272Z,80215.19
2024-02-13T04:21:36.635Z,80214.84
2024-02-13T04:23:17.957Z,80221.31
2024-02-13T04:24:59.323Z,80222.75
2024-02-13T04:28:21.995Z,80219.41
2024-02-13T04:30:03.393Z,80225.09
2024-02-13T04:31:44.767Z,80230.69
2024-02-13T04:33:26.246Z,80221.63
2024-02-13T04:35:07.749Z,80225.41
2024-02-13T04:36:49.125Z,80234.59
2024-02-13T04:38:30.489Z,80231.72
2024-02-13T04:40:13.830Z,80234.28
2024-02-13T04:41:56.084Z,80242.25
2024-02-13T04:43:37.420Z,80232.84
2024-02-13T04:45:18.774Z,80234.03
2024-02-13T04:47:00.125Z,80231.44
2024-02-13T04:48:41.563Z,80234.97
2024-02-13T04:50:23.003Z,80232.13
2024-02-13T04:52:04.333Z,80230.81
2024-02-13T04:53:46.429Z,80242.50
2024-02-13T04:55:28.134Z,80242.88
2024-02-13T04:57:09.524Z,80248.34
2024-02-13T04:58:50.882Z,80246.81
2024-02-13T05:00:32.250Z,80245.84
2024-02-13T05:02:13.634Z,80241.00
2024-02-13T05:03:55.023Z,80247.03
2024-02-13T05:05:36.660Z,80238.00
2024-02-13T05:07:18.215Z,80242.91
2024-02-13T05:08:59.550Z,80238.34
2024-02-13T05:10:40.949Z,80243.84
2024-02-13T05:12:22.340Z,80236.63
2024-02-13T05:14:03.890Z,80233.72
2024-02-13T05:15:45.470Z,80237.34
2024-02-13T05:17:26.912Z,80240.63
2024-02-13T05:19:08.481Z,80245.41
2024-02-13T05:20:50.085Z,80235.66
2024-02-13T05:22:31.519Z,80239.19
2024-02-13T05:24:12.885Z,80230.94
2024-02-13T05:25:54.272Z,80229.47
2024-02-13T05:27:35.643Z,80234.19
2024-02-13T05:29:17.020Z,80228.25
2024-02-13T05:30:58.404Z,80225.84
2024-02-13T05:32:39.807Z,80233.78
2024-02-13T05:34:21.238Z,80226.00
2024-02-13T05:36:02.655Z,80227.69
2024-02-13T05:37:44.004Z,80228.00
2024-02-13T05:39:25.331Z,80228.00
2024-02-13T05:41:06.698Z,80226.59
2024-02-13T05:42:48.053Z,80235.75
2024-02-13T05:44:29.412Z,80219.38
2024-02-13T05:46:10.820Z,80222.41
2024-02-13T05:47:52.260Z,80223.09
2024-02-13T05:49:34.222Z,80223.59
2024-02-13T05:51:15.871Z,80223.72
2024-02-13T05:52:57.236Z,80213.91
2024-02-13T05:54:39.944Z,80222.91
2024-02-13T05:56:27.246Z,80213.66
2024-02-13T05:58:09.768Z,80220.22
2024-02-13T05:59:51.227Z,80216.03
2024-02-13T06:01:32.760Z,80211.94
2024-02-13T06:03:14.180Z,80218.16
2024-02-13T06:04:55.517Z,80213.72
2024-02-13T06:06:36.954Z,80213.53
2024-02-13T06:08:18.401Z,80207.75
2024-02-13T06:09:59.764Z,80210.88
2024-02-13T06:11:41.288Z,80205.41
2024-02-13T06:13:22.726Z,80207.72
2024-02-13T06:15:04.138Z,80214.28
2024-02-13T06:16:45.562Z,80219.00
2024-02-13T06:18:27.062Z,80223.25
2024-02-13T06:20:08.610Z,80219.69
2024-02-13T06:21:49.963Z,80228.41
2024-02-13T06:23:31.506Z,80219.31
2024-02-13T06:25:12.963Z,80237.59
2024-02-13T06:26:56.963Z,80234.81
2024-02-13T06:28:38.524Z,80233.78
2024-02-13T06:30:19.952Z,80234.44
2024-02-13T06:32:01.332Z,80239.31
2024-02-13T06:33:42.923Z,80245.31
2024-02-13T06:35:24.396Z,80248.16
2024-02-13T06:37:05.738Z,80251.53
2024-02-13T06:38:47.142Z,80252.41
2024-02-13T06:40:28.527Z,80260.94
2024-02-13T06:42:09.953Z,80262.19
2024-02-13T06:43:51.337Z,80263.75
2024-02-13T06:45:32.771Z,80266.63
2024-02-13T06:47:14.263Z,80269.06
2024-02-13T06:48:55.870Z,80275.03
2024-02-13T06:50:37.336Z,80278.19
2024-02-13T06:52:18.739Z,80276.56
2024-02-13T06:54:00.270Z,80279.09
2024-02-13T06:55:41.721Z,80292.59
2024-02-13T06:57:23.084Z,80292.97
2024-02-13T06:59:04.622Z,80293.81
2024-02-13T07:00:46.033Z,80304.94
2024-02-13T07:02:27.409Z,80305.31
2024-02-13T07:04:08.789Z,80296.25
2024-02-13T07:05:51.446Z,80304.03
2024-02-13T07:07:42.237Z,80311.41
2024-02-13T07:09:28.743Z,80300.31
2024-02-13T07:11:10.223Z,80302.88
2024-02-13T07:12:51.554Z,80312.19
2024-02-13T07:14:33.249Z,80316.94
2024-02-13T07:16:14.695Z,80316.66
2024-02-13T07:18:00.533Z,80322.72
2024-02-13T07:19:43.405Z,80329.69
2024-02-13T07:21:26.212Z,80320.19
2024-02-13T07:23:09.772Z,80328.53
2024-02-13T07:24:51.131Z,80330.88
2024-02-13T07:26:32.500Z,80330.59
2024-02-13T07:28:13.929Z,80331.34
2024-02-13T07:29:55.434Z,80327.28
2024-02-13T07:31:37.046Z,80331.97
2024-02-13T07:33:18.617Z,80328.06
2024-02-13T07:35:00.061Z,80325.91
2024-02-13T07:36:41.533Z,80328.25
2024-02-13T07:38:22.947Z,80334.63
2024-02-13T07:40:04.368Z,80321.22
2024-02-13T07:41:45.897Z,80327.44
2024-02-13T07:43:27.292Z,80329.47
2024-02-13T07:45:08.623Z,80323.06
2024-02-13T07:46:51.353Z,80320.91
2024-02-13T07:48:33.151Z,80322.63
2024-02-13T07:50:15.122Z,80326.28
2024-02-13T07:51:56.765Z,80329.88
2024-02-13T07:53:38.186Z,80329.31
2024-02-13T07:55:19.552Z,80329.56
2024-02-13T07:57:00.920Z,80325.69
2024-02-13T07:58:42.265Z,80332.16
2024-02-13T08:00:23.657Z,80326.81
2024-02-13T08:02:05.050Z,80328.22
2024-02-13T08:03:46.549Z,80326.06
2024-02-13T08:05:27.954Z,80326.03
2024-02-13T08:07:10.453Z,80324.59
2024-02-13T08:08:52.092Z,80323.78
2024-02-13T08:10:33.517Z,80326.97
2024-02-13T08:12:14.847Z,80326.00
2024-02-13T08:13:56.572Z,80330.19
2024-02-13T08:15:38.200Z,80330.34
2024-02-13T08:17:19.623Z,80329.25
2024-02-13T08:19:01.239Z,80331.03
2024-02-13T08:20:42.723Z,80331.28
2024-02-13T08:22:24.424Z,80332.97
2024-02-13T08:24:06.068Z,80332.69
2024-02-13T08:25:47.418Z,80328.75
2024-02-13T08:27:28.760Z,80324.88
2024-02-13T08:29:10.129Z,80326.56
2024-02-13T08:30:51.722Z,80321.22
2024-02-13T08:32:33.322Z,80318.50
2024-02-13T08:34:15.775Z,80321.59
2024-02-13T08:35:57.401Z,80320.97
2024-02-13T08:37:38.816Z,80332.16
2024-02-13T08:39:20.194Z,80322.88
2024-02-13T08:41:01.533Z,80327.13
2024-02-13T08:42:42.875Z,80319.00
2024-02-13T08:44:24.307Z,80316.88
2024-02-13T08:46:05.680Z,80304.00
2024-02-13T08:47:47.105Z,80314.78
2024-02-13T08:49:28.833Z,80305.22
2024-02-13T08:51:10.395Z,80315.91
2024-02-13T08:52:51.836Z,80311.06
2024-02-13T08:54:33.229Z,80314.97
2024-02-13T08:56:14.598Z,80319.47
2024-02-13T08:57:55.966Z,80308.75
2024-02-13T08:59:37.378Z,80315.09
2024-02-13T09:01:18.772Z,80310.06
2024-02-13T09:03:00.350Z,80318.22
2024-02-13T09:04:41.882Z,80322.13
2024-02-13T09:06:23.511Z,80325.97
2024-02-13T09:08:04.891Z,80323.06
2024-02-13T09:09:46.643Z,80325.97
2024-02-13T09:11:28.021Z,80328.38
2024-02-13T09:13:09.458Z,80333.56
2024-02-13T09:14:50.902Z,80331.91
2024-02-13T09:16:32.240Z,80324.59
2024-02-13T09:18:13.738Z,80322.78
2024-02-13T09:19:55.210Z,80324.22
2024-02-13T09:21:36.614Z,80325.53
2024-02-13T09:23:18.094Z,80328.53
2024-02-13T09:24:59.448Z,80322.50
2024-02-13T09:26:40.831Z,80318.94
2024-02-13T09:28:22.179Z,80319.75
2024-02-13T09:30:03.558Z,80321.06
2024-02-13T09:31:47.366Z,80317.16
2024-02-13T09:33:29.278Z,80322.28
2024-02-13T09:35:10.757Z,80321.81
2024-02-13T09:36:52.097Z,80316.25
2024-02-13T09:38:33.539Z,80311.00
2024-02-13T09:40:15.011Z,80314.97
2024-02-13T09:41:56.436Z,80311.59
2024-02-13T09:43:41.744Z,80307.97
2024-02-13T09:45:25.882Z,80305.47
2024-02-13T09:47:07.234Z,80313.25
2024-02-13T09:48:49.144Z,80312.00
2024-02-13T09:50:33.137Z,80309.22
2024-02-13T09:52:14.493Z,80307.59
2024-02-13T09:53:55.891Z,80311.78
2024-02-13T09:55:37.630Z,80313.03
2024-02-13T09:57:19.739Z,80319.84
2024-02-13T09:59:01.137Z,80317.28
2024-02-13T10:00:42.499Z,80317.78
2024-02-13T10:02:23.899Z,80311.16
2024-02-13T10:04:05.365Z,80306.50
2024-02-13T10:05:46.913Z,80310.19
2024-02-13T10:07:28.507Z,80308.03
2024-02-13T10:09:09.962Z,80312.41
2024-02-13T10:10:51.360Z,80316.06
2024-02-13T10:12:32.723Z,80319.44
2024-02-13T10:14:14.123Z,80320.94
2024-02-13T10:15:55.475Z,80315.22
2024-02-13T10:17:36.884Z,80314.75
2024-02-13T10:19:18.323Z,80313.06
2024-02-13T10:20:59.770Z,80324.06
2024-02-13T10:22:41.194Z,80327.91
2024-02-13T10:24:22.529Z,80326.53
2024-02-13T10:26:03.912Z,80337.28
2024-02-13T10:27:45.248Z,80351.09
2024-02-13T10:29:26.632Z,80343.59
2024-02-13T10:31:08.032Z,80349.19
2024-02-13T10:32:49.461Z,80343.50
2024-02-13T10:34:30.846Z,80348.31
2024-02-13T10:36:12.262Z,80342.88
2024-02-13T10:37:53.934Z,80341.25
2024-02-13T10:39:35.377Z,80329.25
2024-02-13T10:41:16.782Z,80330.13
2024-02-13T10:42:58.182Z,80328.03
2024-02-13T10:44:40.172Z,80328.22
2024-02-13T10:46:21.575Z,80327.28
2024-02-13T10:48:03.018Z,80324.47
2024-02-13T10:49:44.574Z,80323.72
2024-02-13T10:51:25.971Z,80318.63
2024-02-13T10:53:07.351Z,80320.47
2024-02-13T10:54:48.741Z,80324.50
2024-02-13T10:56:30.147Z,80316.88
2024-02-13T10:58:17.636Z,80315.66
2024-02-13T11:00:05.773Z,80313.22
2024-02-13T11:01:47.222Z,80321.91
2024-02-13T11:03:28.721Z,80314.78
2024-02-13T11:05:10.211Z,80310.84
2024-02-13T11:06:51.764Z,80309.66
2024-02-13T11:08:33.130Z,80310.31
2024-02-13T11:10:14.514Z,80306.47
2024-02-13T11:11:56.082Z,80312.34
2024-02-13T11:13:37.553Z,80318.84
2024-02-13T11:15:18.968Z,80316.75
2024-02-13T11:17:00.312Z,80319.38
2024-02-13T11:18:41.774Z,80314.13
2024-02-13T11:20:23.339Z,80317.94
2024-02-13T11:22:04.796Z,80321.97
2024-02-13T11:23:46.220Z,80321.16
2024-02-13T11:25:27.773Z,80324.06
2024-02-13T11:27:20.070Z,80325.22
2024-02-13T11:29:08.460Z,80326.47
2024-02-13T11:30:49.944Z,80333.63
2024-02-13T11:32:31.458Z,80324.50
2024-02-13T11:34:12.963Z,80327.84
2024-02-13T11:35:54.792Z,80327.19
2024-02-13T11:37:36.448Z,80324.47
2024-02-13T11:39:17.807Z,80335.09
2024-02-13T11:40:59.339Z,80327.66
2024-02-13T11:42:40.690Z,80335.06
2024-02-13T11:44:22.235Z,80328.53
2024-02-13T11:46:03.777Z,80325.94
2024-02-13T11:47:45.167Z,80322.22
2024-02-13T11:49:27.205Z,80322.91
2024-02-13T11:51:08.756Z,80326.88
2024-02-13T11:52:50.130Z,80322.25
2024-02-13T11:54:31.948Z,80323.56
2024-02-13T11:56:13.442Z,80332.09
2024-02-13T11:57:54.784Z,80330.72
2024-02-13T11:59:36.155Z,80328.81
2024-02-13T12:01:17.582Z,80329.50
2024-02-13T12:02:59.039Z,80326.88
2024-02-13T12:04:40.572Z,80330.78
2024-02-13T12:06:21.959Z,80326.84
2024-02-13T12:08:03.337Z,80331.44
2024-02-13T12:09:44.680Z,80333.41
2024-02-13T12:11:26.102Z,80330.13
2024-02-13T12:13:07.482Z,80326.84
2024-02-13T12:14:48.947Z,80323.56
2024-02-13T12:16:30.377Z,80324.84
2024-02-13T12:18:11.855Z,80324.19
2024-02-13T12:19:53.324Z,80329.44
2024-02-13T12:21:34.832Z,80329.47
2024-02-13T12:23:16.230Z,80325.53
2024-02-13T12:24:58.854Z,80321.44
2024-02-13T12:26:40.274Z,80323.91
2024-02-13T12:28:21.616Z,80316.66
2024-02-13T12:30:03.008Z,80318.66
2024-02-13T12:31:44.433Z,80319.81
2024-02-13T12:33:25.929Z,80316.41
2024-02-13T12:35:07.397Z,80320.28
2024-02-13T12:36:48.833Z,80316.53
2024-02-13T12:38:31.578Z,80316.81
2024-02-13T12:40:13.306Z,80322.72
2024-02-13T12:41:54.724Z,80320.59
2024-02-13T12:43:36.116Z,80320.53
2024-02-13T12:45:17.539Z,80333.72
2024-02-13T12:46:59.033Z,80327.63
2024-02-13T12:48:41.439Z,80332.81
2024-02-13T12:50:23.397Z,80329.44
2024-02-13T12:52:04.945Z,80325.47
2024-02-13T12:53:46.303Z,80325.53
2024-02-13T12:55:27.692Z,80331.31
2024-02-13T12:57:09.077Z,80345.81
2024-02-13T12:58:50.410Z,80337.22
2024-02-13T13:00:31.747Z,80341.53
2024-02-13T13:02:13.086Z,80341.69
2024-02-13T13:03:54.463Z,80341.34
2024-02-13T13:05:35.948Z,80344.69
2024-02-13T13:07:17.347Z,80354.72
2024-02-13T13:08:58.924Z,80355.13
2024-02-13T13:10:40.489Z,80354.44
2024-02-13T13:12:21.919Z,80352.44
2024-02-13T13:14:03.359Z,80347.06
2024-02-13T13:15:44.801Z,80353.09
2024-02-13T13:17:26.255Z,80344.59
2024-02-13T13:19:07.998Z,80356.38
2024-02-13T13:20:49.682Z,80349.84
2024-02-13T13:22:31.164Z,80354.44
2024-02-13T13:24:12.588Z,80358.34
2024-02-13T13:25:54.233Z,80356.34
2024-02-13T13:27:35.661Z,80353.69
2024-02-13T13:29:17.213Z,80354.28
2024-02-13T13:30:58.701Z,80376.28
2024-02-13T13:32:40.155Z,80379.94
2024-02-13T13:34:22.323Z,80379.72
2024-02-13T13:36:04.102Z,80379.84
2024-02-13T13:37:45.622Z,80386.16
2024-02-13T13:39:26.997Z,80379.22
2024-02-13T13:41:08.517Z,80384.34
2024-02-13T13:42:50.142Z,80385.28
2024-02-13T13:44:31.790Z,80398.00
2024-02-13T13:46:13.164Z,80397.16
2024-02-13T13:47:54.600Z,80412.13
2024-02-13T13:49:36.232Z,80403.44
2024-02-13T13:51:17.760Z,80409.38
2024-02-13T13:52:59.116Z,80397.81
2024-02-13T13:54:40.438Z,80407.72
2024-02-13T13:56:21.849Z,80405.72
2024-02-13T13:58:03.258Z,80403.03
2024-02-13T13:59:44.648Z,80409.84
2024-02-13T14:01:26.087Z,80401.13
2024-02-13T14:03:07.507Z,80403.50
2024-02-13T14:04:48.874Z,80410.00
2024-02-13T14:06:30.316Z,80410.63
2024-02-13T14:08:11.724Z,80415.03
2024-02-13T14:09:53.166Z,80406.03
2024-02-13T14:11:34.522Z,80410.94
2024-02-13T14:13:15.890Z,80413.44
2024-02-13T14:14:57.277Z,80417.69
2024-02-13T14:16:38.687Z,80416.94
2024-02-13T14:18:20.288Z,80418.66
2024-02-13T14:20:01.850Z,80416.06
2024-02-13T14:21:43.287Z,80416.91
2024-02-13T14:23:24.900Z,80420.28
2024-02-13T14:25:06.373Z,80417.72
2024-02-13T14:26:48.020Z,80425.81
2024-02-13T14:28:29.624Z,80425.09
2024-02-13T14:30:10.996Z,80429.81
2024-02-13T14:31:52.357Z,80421.94
2024-02-13T14:33:34.128Z,80430.81
2024-02-13T14:35:15.696Z,80432.97
2024-02-13T14:36:57.083Z,80428.69
2024-02-13T14:38:38.467Z,80437.47
2024-02-13T14:40:19.885Z,80437.03
2024-02-13T14:42:01.584Z,80447.78
2024-02-13T14:43:43.195Z,80451.69
2024-02-13T14:45:24.576Z,80454.28
2024-02-13T14:47:05.925Z,80449.06
2024-02-13T14:48:48.515Z,80450.97
2024-02-13T14:50:30.355Z,80455.25
2024-02-13T14:52:12.122Z,80455.59
2024-02-13T14:53:53.625Z,80460.91
2024-02-13T14:55:35.077Z,80461.16
2024-02-13T14:57:16.526Z,80469.13
2024-02-13T14:58:57.921Z,80459.75
2024-02-13T15:00:39.418Z,80470.06
2024-02-13T15:02:20.946Z,80476.06
2024-02-13T15:04:02.341Z,80471.19
2024-02-13T15:05:43.824Z,80473.75
2024-02-13T15:07:25.362Z,80466.81
2024-02-13T15:09:06.942Z,80474.19
2024-02-13T15:10:48.428Z,80478.44
2024-02-13T15:12:29.788Z,80472.44
2024-02-13T15:14:11.160Z,80480.69
2024-02-13T15:15:52.957Z,80485.28
2024-02-13T15:17:34.481Z,80483.28
2024-02-13T15:19:16.225Z,80487.22
2024-02-13T15:20:57.880Z,80478.63
2024-02-13T15:22:39.253Z,80483.97
2024-02-13T15:24:20.856Z,80488.22
2024-02-13T15:26:02.392Z,80494.81
2024-02-13T15:27:43.812Z,80505.13
2024-02-13T15:29:25.254Z,80505.22
2024-02-13T15:31:06.649Z,80503.34
2024-02-13T15:32:48.161Z,80502.63
2024-02-13T15:34:29.604Z,80504.47
2024-02-13T15:36:11.061Z,80507.66
2024-02-13T15:37:52.490Z,80502.09
2024-02-13T15:39:34.066Z,80505.41
2024-02-13T15:41:15.465Z,80501.88
2024-02-13T15:42:58.884Z,80507.22
2024-02-13T15:44:41.142Z,80509.44
2024-02-13T15:46:22.662Z,80507.94
2024-02-13T15:48:04.236Z,80512.56
2024-02-13T15:49:45.758Z,80509.56
2024-02-13T15:51:27.272Z,80513.47
2024-02-13T15:53:08.623Z,80516.97
2024-02-13T15:54:49.993Z,80515.34
2024-02-13T15:56:31.379Z,80514.88
2024-02-13T15:58:12.776Z,80522.84
2024-02-13T15:59:54.196Z,80522.00
2024-02-13T16:01:35.671Z,80515.38
2024-02-13T16:03:17.181Z,80520.03
2024-02-13T16:04:58.534Z,80527.72
2024-02-13T16:06:39.982Z,80526.06
2024-02-13T16:08:21.792Z,80524.28
2024-02-13T16:10:03.406Z,80526.50
2024-02-13T16:11:45.013Z,80528.69
2024-02-13T16:13:28.387Z,80523.81
2024-02-13T16:15:11.192Z,80522.00
2024-02-13T16:16:55.576Z,80520.13
2024-02-13T16:18:37.189Z,80520.94
2024-02-13T16:20:18.713Z,80522.97
2024-02-13T16:22:00.360Z,80525.63
2024-02-13T16:23:41.904Z,80533.63
2024-02-13T16:25:23.367Z,80536.16
2024-02-13T16:27:04.988Z,80533.28
2024-02-13T16:28:46.548Z,80526.56
2024-02-13T16:30:28.056Z,80529.94
2024-02-13T16:32:09.584Z,80540.91
2024-02-13T16:33:51.151Z,80536.19
2024-02-13T16:35:32.935Z,80538.47
2024-02-13T16:37:14.338Z,80538.66
2024-02-13T16:38:55.773Z,80537.13
2024-02-13T16:40:37.194Z,80534.69
2024-02-13T16:42:18.694Z,80532.00
2024-02-13T16:44:00.101Z,80542.53
2024-02-13T16:45:41.642Z,80543.47
2024-02-13T16:47:23.284Z,80545.00
2024-02-13T16:49:04.928Z,80545.88
2024-02-13T16:50:46.391Z,80550.13
2024-02-13T16:52:27.776Z,80553.03
2024-02-13T16:54:09.173Z,80546.53
2024-02-13T16:55:50.741Z,80555.88
2024-02-13T16:57:32.301Z,80567.06
2024-02-13T16:59:13.838Z,80560.97
2024-02-13T17:00:55.265Z,80558.84
2024-02-13T17:02:36.783Z,80566.03
2024-02-13T17:04:18.278Z,80566.38
2024-02-13T17:05:59.760Z,80564.78
2024-02-13T17:07:41.555Z,80569.97
2024-02-13T17:09:23.111Z,80581.63
2024-02-13T17:11:04.477Z,80581.53
2024-02-13T17:12:45.880Z,80576.31
2024-02-13T17:14:27.265Z,80579.31
2024-02-13T17:16:08.964Z,80574.56
2024-02-13T17:17:50.389Z,80581.22
2024-02-13T17:19:31.967Z,80583.19
2024-02-13T17:21:13.415Z,80589.03
2024-02-13T17:22:54.838Z,80582.34
2024-02-13T17:24:36.183Z,80580.53
2024-02-13T17:26:17.537Z,80577.84
2024-02-13T17:27:58.928Z,80583.22
2024-02-13T17:29:40.414Z,80584.22
2024-02-13T17:31:22.324Z,80592.78
2024-02-13T17:33:03.982Z,80600.34
2024-02-13T17:34:45.599Z,80600.25
2024-02-13T17:36:27.161Z,80599.81
2024-02-13T17:38:08.629Z,80600.97
2024-02-13T17:39:50.054Z,80606.28
2024-02-13T17:41:31.573Z,80599.81
2024-02-13T17:43:12.965Z,80605.56
2024-02-13T17:44:54.355Z,80613.97
2024-02-13T17:46:35.718Z,80606.28
2024-02-13T17:48:17.212Z,80603.72
2024-02-13T17:49:58.705Z,80608.72
2024-02-13T17:51:40.123Z,80613.31
2024-02-13T17:53:21.519Z,80617.81
2024-02-13T17:55:05.606Z,80620.38
2024-02-13T17:56:48.685Z,80616.13
2024-02-13T17:58:30.124Z,80617.56
2024-02-13T18:00:11.742Z,80619.97
2024-02-13T18:01:53.124Z,80621.38
2024-02-13T18:03:34.672Z,80626.00
2024-02-13T18:05:16.187Z,80628.53
2024-02-13T18:06:57.732Z,80628.31
2024-02-13T18:08:39.257Z,80618.50
2024-02-13T18:10:20.658Z,80618.50
2024-02-13T18:12:02.090Z,80625.97
2024-02-13T18:13:43.567Z,80627.91
2024-02-13T18:15:24.928Z,80620.78
2024-02-13T18:17:06.317Z,80631.38
2024-02-13T18:18:47.928Z,80631.94
2024-02-13T18:20:30.109Z,80632.34
2024-02-13T18:22:11.734Z,80632.88
2024-02-13T18:23:55.203Z,80626.81
2024-02-13T18:25:37.477Z,80629.28
2024-02-13T18:27:18.826Z,80633.97
2024-02-13T18:29:00.174Z,80628.41
2024-02-13T18:30:41.540Z,80624.63
2024-02-13T18:32:22.924Z,80634.81
2024-02-13T18:34:04.527Z,80637.44
2024-02-13T18:35:46.537Z,80637.28
2024-02-13T18:37:28.185Z,80632.59
2024-02-13T18:39:09.756Z,80632.25
2024-02-13T18:40:51.250Z,80629.84
2024-02-13T18:42:32.622Z,80625.59
2024-02-13T18:44:13.986Z,80631.13
2024-02-13T18:45:55.392Z,80635.94
2024-02-13T18:47:36.909Z,80638.75
2024-02-13T18:49:18.439Z,80632.63
2024-02-13T18:51:01.103Z,80646.78
2024-02-13T18:52:43.814Z,80638.47
2024-02-13T18:54:25.187Z,80639.94
2024-02-13T18:56:06.561Z,80639.34
2024-02-13T18:57:47.932Z,80636.06
2024-02-13T18:59:29.996Z,80635.56
2024-02-13T19:01:11.700Z,80631.31
2024-02-13T19:02:53.146Z,80640.84
2024-02-13T19:04:34.620Z,80639.09
2024-02-13T19:06:16.066Z,80650.78
2024-02-13T19:07:57.455Z,80646.78
2024-02-13T19:09:38.811Z,80654.56
2024-02-13T19:11:20.161Z,80654.97
2024-02-13T19:13:01.515Z,80648.00
2024-02-13T19:14:42.899Z,80653.13
2024-02-13T19:16:24.235Z,80650.22
2024-02-13T19:18:05.729Z,80643.41
2024-02-13T19:19:47.266Z,80645.53
2024-02-13T19:21:28.679Z,80643.66
2024-02-13T19:23:11.236Z,80644.97
2024-02-13T19:24:52.640Z,80650.00
2024-02-13T19:26:34.246Z,80652.59
2024-02-13T19:28:15.885Z,80656.34
2024-02-13T19:29:57.975Z,80648.34
2024-02-13T19:31:39.380Z,80650.69
2024-02-13T19:33:20.926Z,80648.03
2024-02-13T19:35:02.488Z,80638.78
2024-02-13T19:36:43.859Z,80651.88
2024-02-13T19:38:26.061Z,80642.31
2024-02-13T19:40:07.681Z,80645.06
2024-02-13T19:41:49.065Z,80641.50
2024-02-13T19:43:30.446Z,80648.47
2024-02-13T19:45:11.848Z,80646.78
2024-02-13T19:46:53.201Z,80650.44
2024-02-13T19:48:34.626Z,80650.09
2024-02-13T19:50:16.137Z,80656.94
2024-02-13T19:51:57.529Z,80667.94
2024-02-13T19:53:38.916Z,80652.56
2024-02-13T19:55:20.438Z,80658.00